Atleta — CUGK4 — position and weather

sailwx.info

Track history (hours):
 
Tides and Currents Weather Stations Pressure Air Temp Water Temp Dewpoint Dewpoint Depression Visibility Wind Speed Wind Dir Waves Ship Positions

Atleta

Last reported at 2018-Jun-18 14:26 UTC. Time now 2018-Jun-19 04:32 UTC.
Position N 39°18' W 009°26'.

Length 24 m.

Type: Fishing. MMSI: 263407740.

Date/timePositionNaut miles runAvg speedWind from/ knotsBaromVisibWave heightAir tempDewpointWater temp
2018-Jun-18 14:26N 39°18' W 009°26'0 0.1
2018-Jun-18 14:00N 39°18' W 009°26'0 0.2
2018-Jun-18 13:30N 39°18' W 009°26'  
2018-Jun-15 16:27N 39°13' W 009°25'2 0.1
2018-Jun-14 17:06N 39°14' W 009°27'0 0.4
2018-Jun-14 16:36N 39°14' W 009°28'0 0.4
2018-Jun-14 16:15N 39°14' W 009°27'0 0.2
2018-Jun-14 16:00N 39°14' W 009°27'0 0.4
2018-Jun-14 15:30N 39°14' W 009°27'1 1.2
2018-Jun-14 14:55N 39°14' W 009°27'3 4.4
2018-Jun-14 14:12N 39°11' W 009°24'2 0.1
2018-Jun-13 19:04N 39°13' W 009°26'2 9.1
2018-Jun-13 18:53N 39°12' W 009°24'1 0.3
2018-Jun-13 14:36N 39°13' W 009°23'1 9.3
2018-Jun-13 14:30N 39°12' W 009°23'2 0.3
2018-Jun-13 04:57N 39°14' W 009°25'2 4.9
2018-Jun-13 04:28N 39°12' W 009°23'4 0.5
2018-Jun-12 19:03N 39°15' W 009°27'0 8.5
2018-Jun-12 18:59N 39°14' W 009°28'3 3.6
2018-Jun-12 18:02N 39°12' W 009°25'0 8.3
2018-Jun-12 18:00N 39°12' W 009°25'5 9.1
2018-Jun-12 17:30N 39°07' W 009°26'4 8.8
2018-Jun-12 17:00N 39°03' W 009°27'4 9.0
2018-Jun-12 16:30N 38°58' W 009°28'3 6.0
2018-Jun-12 16:00N 38°55' W 009°28'2 3.4
2018-Jun-12 15:30N 38°57' W 009°28'510.9
2018-Jun-12 15:00N 39°02' W 009°27'510.6
2018-Jun-12 14:30N 39°08' W 009°26'5 8.5
2018-Jun-12 13:55N 39°13' W 009°26'2 0.1
2018-Jun-11 19:47N 39°15' W 009°25'3 9.4
2018-Jun-11 19:30N 39°12' W 009°27'0 0.5
2018-Jun-11 19:00N 39°12' W 009°27'0 0.6
2018-Jun-11 18:28N 39°13' W 009°27'0 0.3
2018-Jun-11 18:00N 39°13' W 009°27'1 1.9
2018-Jun-11 17:30N 39°14' W 009°27'3 4.0
2018-Jun-11 16:53N 39°12' W 009°25'2 3.8
2018-Jun-11 16:23N 39°13' W 009°27'  
2018-Jun-08 16:09N 39°14' W 009°27'1 9.1
2018-Jun-08 16:00N 39°13' W 009°28'0 0.4
2018-Jun-08 15:30N 39°13' W 009°28'0 0.2
2018-Jun-08 15:00N 39°13' W 009°28'0 0.2
2018-Jun-08 14:30N 39°13' W 009°28'  
Track history (hours):
 
Tides and Currents Weather Stations Pressure Air Temp Water Temp Dewpoint Dewpoint Depression Visibility Wind Speed Wind Dir Waves Ship Positions

Atleta

Last reported at 2018-Jun-18 14:26 UTC. Time now 2018-Jun-19 04:32 UTC.
Position N 39°18' W 009°26'.

Length 24 m.

Type: Fishing. MMSI: 263407740.

Date/timePositionNaut miles runAvg speedWind from/ knotsBaromVisibWave heightAir tempDewpointWater temp
2018-Jun-18 14:26N 39°18' W 009°26'0 0.1
2018-Jun-18 14:00N 39°18' W 009°26'0 0.2
2018-Jun-18 13:30N 39°18' W 009°26'  
2018-Jun-15 16:27N 39°13' W 009°25'2 0.1
2018-Jun-14 17:06N 39°14' W 009°27'0 0.4
2018-Jun-14 16:36N 39°14' W 009°28'0 0.4
2018-Jun-14 16:15N 39°14' W 009°27'0 0.2
2018-Jun-14 16:00N 39°14' W 009°27'0 0.4
2018-Jun-14 15:30N 39°14' W 009°27'1 1.2
2018-Jun-14 14:55N 39°14' W 009°27'3 4.4
2018-Jun-14 14:12N 39°11' W 009°24'2 0.1
2018-Jun-13 19:04N 39°13' W 009°26'2 9.1
2018-Jun-13 18:53N 39°12' W 009°24'1 0.3
2018-Jun-13 14:36N 39°13' W 009°23'1 9.3
2018-Jun-13 14:30N 39°12' W 009°23'2 0.3
2018-Jun-13 04:57N 39°14' W 009°25'2 4.9
2018-Jun-13 04:28N 39°12' W 009°23'4 0.5
2018-Jun-12 19:03N 39°15' W 009°27'0 8.5
2018-Jun-12 18:59N 39°14' W 009°28'3 3.6
2018-Jun-12 18:02N 39°12' W 009°25'0 8.3
2018-Jun-12 18:00N 39°12' W 009°25'5 9.1
2018-Jun-12 17:30N 39°07' W 009°26'4 8.8
2018-Jun-12 17:00N 39°03' W 009°27'4 9.0
2018-Jun-12 16:30N 38°58' W 009°28'3 6.0
2018-Jun-12 16:00N 38°55' W 009°28'2 3.4
2018-Jun-12 15:30N 38°57' W 009°28'510.9
2018-Jun-12 15:00N 39°02' W 009°27'510.6
2018-Jun-12 14:30N 39°08' W 009°26'5 8.5
2018-Jun-12 13:55N 39°13' W 009°26'2 0.1
2018-Jun-11 19:47N 39°15' W 009°25'3 9.4
2018-Jun-11 19:30N 39°12' W 009°27'0 0.5
2018-Jun-11 19:00N 39°12' W 009°27'0 0.6
2018-Jun-11 18:28N 39°13' W 009°27'0 0.3
2018-Jun-11 18:00N 39°13' W 009°27'1 1.9
2018-Jun-11 17:30N 39°14' W 009°27'3 4.0
2018-Jun-11 16:53N 39°12' W 009°25'2 3.8
2018-Jun-11 16:23N 39°13' W 009°27'  
2018-Jun-08 16:09N 39°14' W 009°27'1 9.1
2018-Jun-08 16:00N 39°13' W 009°28'0 0.4
2018-Jun-08 15:30N 39°13' W 009°28'0 0.2
2018-Jun-08 15:00N 39°13' W 009°28'0 0.2
2018-Jun-08 14:30N 39°13' W 009°28'  

Dump ship's entire track history